Aeroporto :
LOGIN :

Iscrizione | Disclaimer

   EN    FR    IT 

 










Sommario :    VFR   VFR Marginale   IFR   IFR Intensivo   IFR Molto Intensivo
Visibilità : 
Base nubi : 
>= 8 km
>= 3000ft
5 / 8 km
1000 / 3000 ft
1500m / 5 km
500 / 1000 ft
800 / 1500m
200 / 500 ft
< 800m
< 200 ft
Simboli :   Temporali  Nebbia  Neve Forte  Precipitazioni Forti  Vento > 20 kt
SIGMETs :   Varie  Temporali  Ghiacco  Turbolenza  Onda orograficha  Ceneri Vulcaniche






- Altitudine del aeroporto : 18 ft
- Codice IATA : AJA


LFKJ - Ajaccio

ULTIMO METAR :
  • 081000Z AUTO 23008KT CAVOK 18/11 Q1025 NOSIG

METARs OBSOLETI :
  • 080930Z AUTO 24008KT CAVOK 18/10 Q1025 NOSIG
  • 080900Z AUTO 22005KT CAVOK 18/06 Q1025 NOSIG
  • 080830Z AUTO VRB02KT CAVOK 19/05 Q1025 NOSIG
  • 080800Z AUTO 06003KT 030V100 CAVOK 17/05 Q1025 BECMG 24010KT
  • 080730Z AUTO 05004KT 360V090 CAVOK 15/05 Q1025 BECMG 24010KT
  • 080700Z AUTO 04005KT CAVOK 12/04 Q1026 BECMG 24010KT

TAF TAF LFKJ
Valido dal 08 a 09 ore il 09 a 09 ore UTC


080800Z 0809/0909 23010KT CAVOK
BECMG 0819/0820 04006KT
BECMG 0908/0909 24010KT
ATIS : +33 4 95 23 59 85



MetMap, La meteo Aeronautica in un colpo d'occhio ! - Copyright ORBIFLY Dicembre 2007 - Disclaimer

ORBIFLY MET'MAP TEAM :

Programmazione e sviluppo : Alexandra Zaïnal
Concezione : Baudouin d'Aumeries
Aiuto per la programmazione : Marc-Olivier Méhu
Supporto tecnico e logistico : Manuel Goepfert
Aiuto per la traduzione : Arnaldo La Scala

Contatto : metmap@orbifly.com




FONTI E CREDITI :

   NOAA